Airport ID:KRTS
Update Time (UTC):17 DEC 17 02:05
Wind Speed (Knots):7
Wind Direction (Magnetic):070
Temperature (°C):-3
Dew Point (°C):-9
Humidity (%):64
Altimeter (inHg):30.16
Density Altitude (Feet):
Visibility (Miles):10
Clouds (Hundreds of feet):CLR
Present Weather:NO PRECIPITATION
METAR:METAR KRTS 170205Z AUTO 09007KT 10SM CLR M03/M09 A3016 RMK AO2

The data displayed is for advisory purposes only and is not to be used for flight planning or operations.

This page is not automatically refreshed. Reload the page to see current data.